Terminal Aerodrome Forecast
Issued by NWS

Home | Current Version | Previous Version | Text Only | Print | Product List | Glossary On
Versions: 1 2 3 4 5 6 7 8 9 10 11 12 13 14 15 16 17 18 19 20 21 22 23 24 25 26
290
FTUS43 KGRR 270805 AAB
TAFAZO
TAF AMD
KAZO 270805Z 2708/2806 24008KT 2SM -SHRA BR OVC004
     FM271500 24005KT 2SM BR OVC015
     FM271800 26005KT P6SM OVC050
     FM280000 34004KT 4SM BR OVC025
     FM280300 36004KT 1 1/2SM -SHRA BR OVC015=

USA.gov is the U.S. government's official web portal to all federal, state and local government web resources and services.